createdAt,value
2018-05-03T00:00:13.461Z,11.15
2018-05-03T00:01:13.689Z,11.23
2018-05-03T00:02:13.915Z,11.25
2018-05-03T00:03:14.144Z,11.22
2018-05-03T00:04:14.373Z,11.27
2018-05-03T00:05:14.595Z,11.35
2018-05-03T00:06:14.827Z,11.27
2018-05-03T00:07:15.057Z,11.18
2018-05-03T00:08:15.280Z,11.26
2018-05-03T00:09:15.509Z,11.15
2018-05-03T00:10:15.735Z,11.15
2018-05-03T00:11:15.972Z,11.12
2018-05-03T00:12:16.200Z,11.12
2018-05-03T00:13:16.429Z,11.08
2018-05-03T00:14:16.656Z,11.08
2018-05-03T00:15:16.882Z,11.08
2018-05-03T00:16:17.111Z,10.97
2018-05-03T00:17:17.342Z,10.97
2018-05-03T00:18:17.609Z,10.84
2018-05-03T00:19:17.813Z,10.75
2018-05-03T00:20:18.053Z,10.78
2018-05-03T00:21:18.266Z,10.64
2018-05-03T00:22:18.511Z,10.64
2018-05-03T00:23:18.743Z,10.59
2018-05-03T00:24:18.969Z,10.74
2018-05-03T00:25:19.195Z,10.67
2018-05-03T00:26:19.421Z,10.59
2018-05-03T00:27:19.644Z,10.53
2018-05-03T00:28:19.865Z,10.46
2018-05-03T00:29:20.098Z,10.54
2018-05-03T00:30:20.319Z,10.48
2018-05-03T00:31:20.551Z,10.49
2018-05-03T00:32:20.773Z,10.54
2018-05-03T00:33:21.002Z,10.54
2018-05-03T00:34:21.230Z,10.53
2018-05-03T00:35:21.464Z,10.35
2018-05-03T00:36:21.694Z,10.42
2018-05-03T00:37:21.921Z,10.44
2018-05-03T00:38:22.154Z,10.40
2018-05-03T00:39:22.378Z,10.33
2018-05-03T00:40:22.611Z,10.30
2018-05-03T00:41:22.838Z,10.40
2018-05-03T00:42:23.064Z,10.31
2018-05-03T00:43:23.290Z,10.37
2018-05-03T00:44:23.515Z,10.35
2018-05-03T00:45:23.744Z,10.20
2018-05-03T00:46:23.972Z,10.19
2018-05-03T00:47:24.199Z,10.22
2018-05-03T00:48:24.422Z,10.22
2018-05-03T00:49:24.649Z,10.22
2018-05-03T00:50:24.877Z,10.26
2018-05-03T00:51:25.106Z,10.17
2018-05-03T00:52:25.332Z,10.20
2018-05-03T00:53:25.559Z,10.15
2018-05-03T00:54:25.787Z,10.10
2018-05-03T00:55:26.027Z,9.98
2018-05-03T00:56:26.246Z,10.16
2018-05-03T00:57:26.472Z,10.10
2018-05-03T00:58:26.707Z,9.91
2018-05-03T00:59:26.927Z,9.77
2018-05-03T01:00:27.154Z,9.64
2018-05-03T01:01:27.387Z,9.72
2018-05-03T01:02:27.613Z,9.61
2018-05-03T01:03:27.839Z,9.51
2018-05-03T01:04:28.067Z,9.58
2018-05-03T01:05:28.296Z,9.76
2018-05-03T01:06:28.523Z,9.79
2018-05-03T01:07:28.758Z,9.79
2018-05-03T01:08:28.982Z,9.79
2018-05-03T01:09:29.209Z,9.86
2018-05-03T01:10:29.435Z,9.84
2018-05-03T01:11:29.665Z,9.86
2018-05-03T01:12:29.891Z,9.86
2018-05-03T01:13:30.118Z,9.80
2018-05-03T01:14:30.343Z,9.86
2018-05-03T01:15:30.575Z,9.77
2018-05-03T01:16:30.805Z,9.82
2018-05-03T01:17:31.026Z,9.82
2018-05-03T01:18:31.255Z,9.87
2018-05-03T01:19:31.485Z,9.87
2018-05-03T01:20:31.713Z,9.91
2018-05-03T01:21:31.935Z,9.84
2018-05-03T01:22:32.163Z,9.87
2018-05-03T01:23:32.391Z,9.80
2018-05-03T01:24:32.616Z,9.87
2018-05-03T01:25:32.844Z,9.87
2018-05-03T01:26:33.071Z,9.97
2018-05-03T01:27:33.298Z,9.91
2018-05-03T01:28:33.527Z,10.01
2018-05-03T01:29:33.761Z,9.94
2018-05-03T01:30:33.978Z,10.02
2018-05-03T01:31:34.210Z,10.05
2018-05-03T01:32:34.433Z,10.07
2018-05-03T01:33:34.659Z,10.02
2018-05-03T01:34:34.886Z,10.10
2018-05-03T01:35:35.131Z,10.09
2018-05-03T01:36:35.339Z,10.09
2018-05-03T01:37:35.565Z,10.05
2018-05-03T01:38:35.799Z,10.17
2018-05-03T01:39:36.028Z,10.09
2018-05-03T01:40:36.258Z,10.12
2018-05-03T01:41:36.487Z,10.04
2018-05-03T01:42:36.712Z,10.01
2018-05-03T01:43:36.942Z,10.05
2018-05-03T01:44:37.164Z,9.92
2018-05-03T01:45:37.392Z,9.99
2018-05-03T01:46:37.622Z,9.83
2018-05-03T01:47:37.849Z,9.74
2018-05-03T01:48:38.078Z,9.82
2018-05-03T01:49:38.302Z,9.84
2018-05-03T01:50:38.525Z,9.74
2018-05-03T01:51:38.752Z,9.77
2018-05-03T01:52:38.982Z,9.91
2018-05-03T01:53:39.210Z,9.98
2018-05-03T01:54:39.439Z,10.02
2018-05-03T01:55:39.667Z,10.02
2018-05-03T01:56:39.897Z,10.09
2018-05-03T01:57:40.121Z,10.04
2018-05-03T01:58:40.349Z,10.05
2018-05-03T01:59:40.577Z,10.07
2018-05-03T02:00:40.811Z,10.07
2018-05-03T02:01:41.032Z,10.07
2018-05-03T02:02:41.258Z,9.98
2018-05-03T02:03:41.490Z,10.15
2018-05-03T02:04:41.717Z,10.04
2018-05-03T02:05:41.945Z,10.04
2018-05-03T02:06:42.173Z,10.15
2018-05-03T02:07:42.397Z,10.09
2018-05-03T02:08:42.626Z,10.07
2018-05-03T02:09:42.846Z,10.19
2018-05-03T02:10:43.079Z,10.13
2018-05-03T02:11:43.308Z,10.15
2018-05-03T02:12:43.533Z,10.15
2018-05-03T02:13:43.764Z,10.15
2018-05-03T02:14:43.991Z,10.04
2018-05-03T02:15:44.217Z,10.07
2018-05-03T02:16:44.446Z,10.01
2018-05-03T02:17:44.670Z,9.91
2018-05-03T02:18:44.894Z,9.83
2018-05-03T02:19:45.119Z,9.91
2018-05-03T02:20:45.353Z,9.91
2018-05-03T02:21:45.580Z,10.01
2018-05-03T02:22:45.808Z,9.97
2018-05-03T02:23:46.038Z,9.95
2018-05-03T02:24:46.261Z,10.02
2018-05-03T02:25:46.487Z,10.01
2018-05-03T02:26:46.716Z,10.09
2018-05-03T02:27:46.941Z,10.05
2018-05-03T02:28:47.169Z,10.17
2018-05-03T02:29:47.397Z,10.19
2018-05-03T02:30:47.627Z,10.07
2018-05-03T02:31:47.857Z,9.95
2018-05-03T02:32:48.083Z,9.68
2018-05-03T02:33:48.343Z,9.79
2018-05-03T02:34:48.536Z,9.95
2018-05-03T02:35:48.763Z,9.83
2018-05-03T02:36:48.981Z,9.98
2018-05-03T02:37:49.223Z,9.98
2018-05-03T02:38:49.455Z,9.86
2018-05-03T02:39:49.678Z,9.91
2018-05-03T02:40:49.907Z,9.77
2018-05-03T02:41:50.135Z,9.69
2018-05-03T02:42:50.361Z,9.51
2018-05-03T02:43:50.590Z,9.65
2018-05-03T02:44:50.815Z,9.62
2018-05-03T02:45:51.042Z,9.65
2018-05-03T02:46:51.272Z,9.64
2018-05-03T02:47:51.505Z,9.76
2018-05-03T02:48:51.728Z,9.83
2018-05-03T02:49:51.959Z,9.82
2018-05-03T02:50:52.181Z,9.87
2018-05-03T02:51:52.415Z,9.89
2018-05-03T02:52:52.645Z,10.02
2018-05-03T02:53:52.859Z,10.04
2018-05-03T02:54:53.085Z,10.07
2018-05-03T02:55:53.314Z,9.95
2018-05-03T02:56:53.539Z,10.10
2018-05-03T02:57:53.764Z,10.05
2018-05-03T02:58:53.991Z,10.10
2018-05-03T02:59:54.216Z,10.15
2018-05-03T03:00:54.442Z,10.07
2018-05-03T03:01:54.667Z,10.19
2018-05-03T03:02:54.895Z,10.19
2018-05-03T03:03:55.124Z,10.19
2018-05-03T03:04:55.353Z,10.17
2018-05-03T03:05:55.584Z,10.23
2018-05-03T03:06:55.817Z,10.19
2018-05-03T03:07:56.037Z,10.16
2018-05-03T03:08:56.265Z,10.28
2018-05-03T03:09:56.500Z,10.19
2018-05-03T03:10:56.720Z,10.23
2018-05-03T03:11:56.953Z,10.20
2018-05-03T03:12:57.186Z,10.30
2018-05-03T03:13:57.412Z,10.28
2018-05-03T03:14:57.634Z,10.28
2018-05-03T03:15:57.860Z,10.28
2018-05-03T03:16:58.116Z,10.19
2018-05-03T03:17:58.343Z,10.25
2018-05-03T03:18:58.570Z,10.20
2018-05-03T03:19:58.799Z,10.17
2018-05-03T03:20:59.027Z,10.13
2018-05-03T03:21:59.299Z,10.10
2018-05-03T03:22:59.476Z,10.19
2018-05-03T03:23:59.706Z,10.19
2018-05-03T03:24:59.935Z,10.17
2018-05-03T03:26:00.160Z,10.10
2018-05-03T03:27:00.387Z,10.19
2018-05-03T03:28:00.613Z,10.10
2018-05-03T03:29:00.844Z,10.15
2018-05-03T03:30:01.067Z,10.07
2018-05-03T03:31:01.297Z,10.17
2018-05-03T03:32:01.521Z,10.10
2018-05-03T03:33:01.742Z,10.07
2018-05-03T03:34:01.969Z,9.94
2018-05-03T03:35:02.194Z,9.91
2018-05-03T03:36:02.420Z,9.92
2018-05-03T03:37:02.649Z,9.98
2018-05-03T03:38:02.882Z,9.95
2018-05-03T03:39:03.102Z,9.89
2018-05-03T03:40:03.329Z,9.92
2018-05-03T03:41:03.563Z,9.89
2018-05-03T03:42:03.782Z,9.86
2018-05-03T03:43:04.012Z,9.87
2018-05-03T03:44:04.236Z,9.83
2018-05-03T03:45:04.464Z,9.89
2018-05-03T03:46:04.696Z,9.89
2018-05-03T03:47:04.925Z,9.95
2018-05-03T03:48:05.161Z,9.97
2018-05-03T03:49:05.381Z,9.89
2018-05-03T03:50:05.607Z,9.80
2018-05-03T03:51:05.834Z,9.89
2018-05-03T03:52:06.066Z,9.89
2018-05-03T03:53:06.324Z,9.89
2018-05-03T03:54:06.521Z,9.84
2018-05-03T03:55:06.746Z,9.80
2018-05-03T03:56:06.973Z,9.84
2018-05-03T03:57:07.203Z,9.84
2018-05-03T03:58:07.441Z,9.82
2018-05-03T03:59:07.669Z,9.80
2018-05-03T04:00:07.889Z,9.82
2018-05-03T04:01:08.120Z,9.91
2018-05-03T04:02:08.347Z,9.83
2018-05-03T04:03:08.573Z,9.77
2018-05-03T04:04:08.803Z,9.83
2018-05-03T04:05:09.032Z,9.89
2018-05-03T04:06:09.258Z,9.95
2018-05-03T04:07:09.486Z,9.92
2018-05-03T04:08:09.714Z,9.98
2018-05-03T04:09:09.941Z,9.95
2018-05-03T04:10:10.168Z,9.98
2018-05-03T04:11:10.395Z,9.92
2018-05-03T04:12:10.625Z,9.97
2018-05-03T04:13:10.849Z,10.01
2018-05-03T04:14:11.077Z,10.01
2018-05-03T04:15:11.304Z,9.99
2018-05-03T04:16:11.536Z,10.02
2018-05-03T04:17:11.763Z,10.07
2018-05-03T04:18:11.990Z,10.17
2018-05-03T04:19:12.220Z,10.23
2018-05-03T04:20:12.447Z,10.17
2018-05-03T04:21:12.674Z,10.20
2018-05-03T04:22:12.921Z,10.20
2018-05-03T04:23:13.128Z,10.20
2018-05-03T04:24:13.350Z,9.99
2018-05-03T04:25:13.577Z,10.09
2018-05-03T04:26:13.807Z,10.02
2018-05-03T04:27:14.037Z,10.16
2018-05-03T04:28:14.269Z,10.07
2018-05-03T04:29:14.501Z,10.05
2018-05-03T04:30:14.729Z,10.12
2018-05-03T04:31:14.957Z,10.17
2018-05-03T04:32:15.185Z,10.20
2018-05-03T04:33:15.412Z,10.30
2018-05-03T04:34:15.640Z,10.35
2018-05-03T04:35:15.882Z,10.26
2018-05-03T04:36:16.092Z,10.26
2018-05-03T04:37:16.318Z,10.16
2018-05-03T04:38:16.543Z,10.28
2018-05-03T04:39:16.769Z,10.31
2018-05-03T04:40:16.997Z,10.34
2018-05-03T04:41:17.230Z,10.41
2018-05-03T04:42:17.457Z,10.44
2018-05-03T04:43:17.683Z,10.41
2018-05-03T04:44:17.913Z,10.33
2018-05-03T04:45:18.139Z,10.33
2018-05-03T04:46:18.365Z,10.41
2018-05-03T04:47:18.593Z,10.41
2018-05-03T04:48:18.819Z,10.51
2018-05-03T04:49:19.047Z,10.54
2018-05-03T04:50:19.279Z,10.51
2018-05-03T04:51:19.500Z,10.57
2018-05-03T04:52:19.727Z,10.59
2018-05-03T04:53:19.955Z,10.63
2018-05-03T04:54:20.181Z,10.69
2018-05-03T04:55:20.411Z,10.64
2018-05-03T04:56:20.640Z,10.78
2018-05-03T04:57:20.879Z,10.60
2018-05-03T04:58:21.091Z,10.71
2018-05-03T04:59:21.321Z,10.75
2018-05-03T05:00:21.551Z,10.79
2018-05-03T05:01:21.783Z,10.87
2018-05-03T05:02:22.010Z,10.93
2018-05-03T05:03:22.238Z,10.96
2018-05-03T05:04:22.468Z,10.92
2018-05-03T05:05:22.695Z,11.00
2018-05-03T05:06:22.924Z,11.02
2018-05-03T05:07:23.152Z,11.07
2018-05-03T05:08:23.381Z,11.11
2018-05-03T05:09:23.609Z,11.11
2018-05-03T05:10:23.845Z,11.25
2018-05-03T05:11:24.069Z,11.17
2018-05-03T05:12:24.316Z,11.14
2018-05-03T05:13:24.540Z,11.26
2018-05-03T05:14:24.770Z,11.11
2018-05-03T05:15:25.000Z,10.90
2018-05-03T05:16:25.229Z,10.94
2018-05-03T05:17:25.457Z,10.96
2018-05-03T05:18:25.690Z,10.99
2018-05-03T05:19:25.916Z,10.94
2018-05-03T05:20:26.147Z,10.90
2018-05-03T05:21:26.376Z,10.99
2018-05-03T05:22:26.601Z,10.84
2018-05-03T05:23:26.833Z,10.99
2018-05-03T05:24:27.056Z,11.08
2018-05-03T05:25:27.286Z,11.25
2018-05-03T05:26:27.517Z,11.19
2018-05-03T05:27:27.744Z,11.32
2018-05-03T05:28:27.973Z,11.29
2018-05-03T05:29:28.203Z,11.33
2018-05-03T05:30:28.434Z,11.51
2018-05-03T05:31:28.660Z,11.52
2018-05-03T05:32:28.892Z,11.44
2018-05-03T05:33:29.120Z,11.51
2018-05-03T05:34:29.347Z,11.59
2018-05-03T05:35:29.577Z,11.55
2018-05-03T05:36:29.806Z,11.55
2018-05-03T05:37:30.034Z,11.59
2018-05-03T05:38:30.332Z,11.68
2018-05-03T05:39:30.487Z,11.77
2018-05-03T05:40:30.724Z,11.75
2018-05-03T05:41:30.950Z,11.81
2018-05-03T05:42:31.178Z,11.75
2018-05-03T05:43:31.411Z,11.59
2018-05-03T05:44:31.627Z,11.48
2018-05-03T05:45:31.874Z,11.69
2018-05-03T05:46:32.102Z,11.62
2018-05-03T05:47:32.332Z,11.75
2018-05-03T05:48:32.563Z,11.88
2018-05-03T05:49:32.783Z,11.90
2018-05-03T05:50:33.016Z,11.88
2018-05-03T05:51:33.247Z,11.97
2018-05-03T05:52:33.476Z,12.03
2018-05-03T05:53:33.709Z,12.09
2018-05-03T05:54:33.932Z,11.97
2018-05-03T05:55:34.162Z,12.10
2018-05-03T05:56:34.452Z,12.12
2018-05-03T05:57:34.647Z,12.18
2018-05-03T05:58:34.867Z,12.12
2018-05-03T05:59:35.095Z,12.07
2018-05-03T06:00:35.325Z,12.17
2018-05-03T06:01:35.554Z,12.13
2018-05-03T06:02:35.783Z,12.18
2018-05-03T06:03:36.015Z,12.21
2018-05-03T06:04:36.254Z,12.22
2018-05-03T06:05:36.469Z,12.20
2018-05-03T06:06:36.699Z,12.21
2018-05-03T06:07:36.930Z,12.21
2018-05-03T06:08:37.147Z,12.27
2018-05-03T06:09:37.387Z,12.31
2018-05-03T06:10:37.621Z,12.42
2018-05-03T06:11:37.845Z,12.53
2018-05-03T06:12:38.071Z,12.73
2018-05-03T06:13:38.295Z,12.68
2018-05-03T06:14:38.523Z,12.68
2018-05-03T06:15:38.754Z,12.72
2018-05-03T06:16:38.981Z,12.85
2018-05-03T06:17:39.209Z,12.87
2018-05-03T06:18:39.437Z,12.98
2018-05-03T06:19:39.668Z,13.01
2018-05-03T06:20:39.893Z,13.04
2018-05-03T06:21:40.122Z,13.30
2018-05-03T06:22:40.360Z,13.44
2018-05-03T06:23:40.576Z,13.42
2018-05-03T06:24:40.790Z,13.75
2018-05-03T06:25:41.037Z,13.90
2018-05-03T06:26:41.272Z,13.93
2018-05-03T06:27:41.507Z,14.12
2018-05-03T06:28:41.727Z,14.17
2018-05-03T06:29:41.950Z,14.26
2018-05-03T06:30:42.175Z,14.41
2018-05-03T06:31:42.405Z,14.40
2018-05-03T06:32:42.642Z,14.35
2018-05-03T06:33:42.864Z,14.25
2018-05-03T06:34:43.094Z,14.30
2018-05-03T06:35:43.322Z,14.40
2018-05-03T06:36:43.552Z,14.48
2018-05-03T06:37:43.780Z,14.47
2018-05-03T06:38:44.011Z,14.66
2018-05-03T06:39:44.237Z,14.62
2018-05-03T06:40:44.476Z,14.65
2018-05-03T06:41:44.692Z,14.91
2018-05-03T06:42:44.925Z,15.27
2018-05-03T06:43:45.157Z,15.57
2018-05-03T06:44:45.380Z,15.82
2018-05-03T06:45:45.608Z,16.10
2018-05-03T06:46:45.839Z,16.26
2018-05-03T06:47:46.066Z,16.33
2018-05-03T06:48:46.311Z,16.50
2018-05-03T06:49:46.544Z,16.41
2018-05-03T06:50:46.779Z,16.31
2018-05-03T06:51:47.004Z,16.38
2018-05-03T06:52:47.244Z,16.42
2018-05-03T06:53:47.474Z,16.47
2018-05-03T06:54:47.698Z,16.16
2018-05-03T06:55:47.930Z,16.28
2018-05-03T06:56:48.167Z,16.42
2018-05-03T06:57:48.388Z,16.42
2018-05-03T06:58:48.619Z,16.54
2018-05-03T06:59:48.853Z,16.66
2018-05-03T07:00:49.083Z,16.64
2018-05-03T07:01:49.319Z,16.54
2018-05-03T07:02:49.547Z,16.68
2018-05-03T07:03:49.777Z,16.64
2018-05-03T07:04:50.011Z,16.58
2018-05-03T07:05:50.241Z,16.65
2018-05-03T07:06:50.481Z,16.61
2018-05-03T07:07:50.699Z,16.72
2018-05-03T07:08:50.930Z,16.66
2018-05-03T07:09:51.233Z,16.54
2018-05-03T07:10:51.386Z,16.56
2018-05-03T07:11:51.615Z,16.61
2018-05-03T07:12:51.848Z,16.68
2018-05-03T07:13:52.075Z,16.56
2018-05-03T07:14:52.308Z,16.58
2018-05-03T07:15:52.540Z,16.76
2018-05-03T07:16:52.808Z,16.66
2018-05-03T07:17:53.016Z,16.69
2018-05-03T07:18:53.240Z,16.65
2018-05-03T07:19:53.569Z,16.64
2018-05-03T07:20:53.705Z,16.87
2018-05-03T07:21:53.933Z,17.11
2018-05-03T07:22:54.166Z,17.20
2018-05-03T07:23:54.471Z,17.38
2018-05-03T07:24:54.631Z,17.22
2018-05-03T07:25:54.862Z,17.34
2018-05-03T07:26:55.100Z,17.41
2018-05-03T07:27:55.328Z,17.45
2018-05-03T07:28:55.555Z,17.51
2018-05-03T07:29:55.791Z,17.57
2018-05-03T07:30:56.036Z,17.79
2018-05-03T07:31:56.258Z,17.67
2018-05-03T07:32:56.488Z,17.57
2018-05-03T07:33:56.718Z,17.22
2018-05-03T07:34:56.952Z,16.99
2018-05-03T07:35:57.188Z,17.05
2018-05-03T07:36:57.432Z,16.65
2018-05-03T07:37:57.647Z,16.42
2018-05-03T07:38:57.877Z,16.31
2018-05-03T07:39:58.110Z,16.17
2018-05-03T07:40:58.389Z,16.32
2018-05-03T07:41:58.570Z,16.36
2018-05-03T07:42:58.803Z,16.46
2018-05-03T07:43:59.041Z,16.42
2018-05-03T07:44:59.268Z,16.24
2018-05-03T07:45:59.498Z,15.98
2018-05-03T07:46:59.732Z,16.01
2018-05-03T07:47:59.961Z,15.90
2018-05-03T07:49:00.196Z,15.98
2018-05-03T07:50:00.427Z,16.10
2018-05-03T07:51:00.663Z,16.15
2018-05-03T07:52:00.892Z,15.98
2018-05-03T07:53:01.120Z,15.86
2018-05-03T07:54:01.352Z,15.82
2018-05-03T07:55:01.583Z,15.83
2018-05-03T07:56:01.810Z,15.51
2018-05-03T07:57:02.043Z,15.40
2018-05-03T07:58:02.270Z,15.42
2018-05-03T07:59:02.500Z,15.44
2018-05-03T08:00:02.903Z,15.22
2018-05-03T08:01:02.969Z,15.58
2018-05-03T08:02:03.258Z,15.33
2018-05-03T08:03:03.435Z,15.19
2018-05-03T08:04:03.656Z,15.11
2018-05-03T08:05:03.888Z,15.07
2018-05-03T08:06:04.116Z,15.22
2018-05-03T08:07:04.348Z,15.28
2018-05-03T08:08:04.578Z,15.49
2018-05-03T08:09:04.809Z,15.42
2018-05-03T08:10:05.076Z,15.59
2018-05-03T08:11:05.267Z,15.62
2018-05-03T08:12:05.500Z,15.67
2018-05-03T08:13:05.735Z,15.68
2018-05-03T08:14:05.960Z,15.84
2018-05-03T08:15:06.199Z,15.61
2018-05-03T08:16:06.430Z,15.62
2018-05-03T08:17:06.753Z,15.57
2018-05-03T08:18:06.905Z,15.64
2018-05-03T08:19:07.129Z,15.55
2018-05-03T08:20:07.360Z,15.54
2018-05-03T08:21:07.591Z,15.43
2018-05-03T08:22:07.823Z,15.58
2018-05-03T08:23:08.057Z,15.62
2018-05-03T08:24:08.318Z,15.82
2018-05-03T08:25:08.550Z,15.77
2018-05-03T08:26:08.783Z,15.90
2018-05-03T08:27:09.009Z,15.68
2018-05-03T08:28:09.236Z,16.13
2018-05-03T08:29:09.464Z,16.41
2018-05-03T08:30:09.697Z,16.10
2018-05-03T08:31:09.922Z,16.24
2018-05-03T08:32:10.150Z,16.24
2018-05-03T08:33:10.383Z,16.36
2018-05-03T08:34:10.613Z,16.36
2018-05-03T08:35:10.845Z,16.35
2018-05-03T08:36:11.079Z,16.23
2018-05-03T08:37:11.306Z,16.13
2018-05-03T08:38:11.547Z,16.00
2018-05-03T08:39:11.772Z,16.02
2018-05-03T08:40:12.003Z,16.01
2018-05-03T08:41:12.231Z,16.00
2018-05-03T08:42:12.468Z,16.10
2018-05-03T08:43:12.711Z,16.41
2018-05-03T08:44:12.928Z,16.57
2018-05-03T08:45:13.164Z,16.60
2018-05-03T08:46:13.401Z,16.83
2018-05-03T08:47:13.626Z,16.83
2018-05-03T08:48:13.859Z,16.94
2018-05-03T08:49:14.093Z,16.90
2018-05-03T08:50:14.330Z,16.93
2018-05-03T08:51:14.553Z,17.04
2018-05-03T08:52:14.785Z,17.11
2018-05-03T08:53:15.021Z,17.38
2018-05-03T08:54:15.242Z,17.59
2018-05-03T08:55:15.474Z,17.68
2018-05-03T08:56:15.703Z,17.87
2018-05-03T08:57:15.940Z,17.70
2018-05-03T08:58:16.173Z,17.42
2018-05-03T08:59:16.409Z,17.36
2018-05-03T09:00:16.629Z,17.38
2018-05-03T09:01:16.935Z,16.96
2018-05-03T09:02:17.102Z,16.83
2018-05-03T09:03:17.319Z,16.86
2018-05-03T09:04:17.551Z,16.91
2018-05-03T09:05:17.774Z,16.96
2018-05-03T09:06:18.006Z,17.04
2018-05-03T09:07:18.238Z,17.09
2018-05-03T09:08:18.467Z,17.33
2018-05-03T09:09:18.694Z,17.16
2018-05-03T09:10:18.927Z,17.20
2018-05-03T09:11:19.153Z,17.36
2018-05-03T09:12:19.384Z,17.04
2018-05-03T09:13:19.613Z,17.20
2018-05-03T09:14:19.845Z,17.42
2018-05-03T09:15:20.081Z,17.51
2018-05-03T09:16:20.309Z,17.80
2018-05-03T09:17:20.541Z,17.83
2018-05-03T09:18:20.769Z,18.00
2018-05-03T09:19:21.001Z,17.94
2018-05-03T09:20:21.237Z,17.78
2018-05-03T09:21:21.464Z,17.92
2018-05-03T09:22:21.759Z,17.94
2018-05-03T09:23:21.928Z,17.95
2018-05-03T09:24:22.159Z,17.97
2018-05-03T09:25:22.391Z,17.82
2018-05-03T09:26:22.622Z,17.67
2018-05-03T09:27:22.855Z,17.68
2018-05-03T09:28:23.086Z,17.83
2018-05-03T09:29:23.314Z,17.86
2018-05-03T09:30:23.542Z,18.01
2018-05-03T09:31:23.774Z,18.16
2018-05-03T09:32:24.006Z,18.28
2018-05-03T09:33:24.237Z,18.28
2018-05-03T09:34:24.472Z,18.50
2018-05-03T09:35:24.721Z,18.73
2018-05-03T09:36:24.952Z,18.52
2018-05-03T09:37:25.186Z,18.47
2018-05-03T09:38:25.413Z,18.56
2018-05-03T09:39:25.650Z,18.63
2018-05-03T09:40:25.873Z,18.45
2018-05-03T09:41:26.122Z,18.33
2018-05-03T09:42:26.342Z,18.56
2018-05-03T09:43:26.569Z,18.58
2018-05-03T09:44:26.857Z,18.70
2018-05-03T09:45:27.027Z,19.00
2018-05-03T09:46:27.272Z,19.16
2018-05-03T09:47:27.504Z,19.39
2018-05-03T09:48:27.730Z,19.48
2018-05-03T09:49:27.980Z,19.69
2018-05-03T09:50:28.185Z,19.58
2018-05-03T09:51:28.420Z,19.79
2018-05-03T09:52:28.739Z,19.55
2018-05-03T09:53:28.884Z,19.74
2018-05-03T09:54:29.108Z,19.63
2018-05-03T09:55:29.338Z,19.24
2018-05-03T09:56:29.568Z,19.18
2018-05-03T09:57:29.820Z,18.68
2018-05-03T09:58:30.032Z,18.62
2018-05-03T09:59:30.300Z,18.68
2018-05-03T10:00:30.534Z,18.52
2018-05-03T10:01:30.752Z,18.55
2018-05-03T10:02:30.992Z,18.33
2018-05-03T10:03:31.233Z,18.23
2018-05-03T10:04:31.470Z,18.43
2018-05-03T10:05:31.689Z,18.52
2018-05-03T10:06:31.913Z,18.77
2018-05-03T10:07:32.145Z,19.07
2018-05-03T10:08:32.372Z,19.08
2018-05-03T10:09:32.597Z,19.16
2018-05-03T10:10:32.829Z,19.21
2018-05-03T10:11:33.063Z,19.39
2018-05-03T10:12:33.288Z,19.00
2018-05-03T10:13:33.523Z,18.96
2018-05-03T10:14:33.776Z,18.86
2018-05-03T10:15:33.977Z,18.92
2018-05-03T10:16:34.205Z,18.88
2018-05-03T10:17:34.437Z,18.65
2018-05-03T10:18:34.672Z,18.47
2018-05-03T10:19:34.906Z,18.53
2018-05-03T10:20:35.144Z,18.08
2018-05-03T10:21:35.373Z,18.31
2018-05-03T10:22:35.612Z,18.28
2018-05-03T10:23:35.838Z,18.35
2018-05-03T10:24:36.073Z,18.35
2018-05-03T10:25:36.300Z,18.31
2018-05-03T10:26:36.542Z,18.50
2018-05-03T10:27:36.772Z,18.58
2018-05-03T10:28:37.008Z,18.45
2018-05-03T10:29:37.244Z,18.01
2018-05-03T10:30:37.479Z,17.85
2018-05-03T10:31:37.710Z,17.74
2018-05-03T10:32:37.947Z,17.71
2018-05-03T10:33:38.182Z,17.46
2018-05-03T10:34:38.413Z,17.45
2018-05-03T10:35:38.699Z,17.23
2018-05-03T10:36:38.889Z,17.12
2018-05-03T10:37:39.121Z,17.06
2018-05-03T10:38:39.355Z,17.11
2018-05-03T10:39:39.578Z,17.09
2018-05-03T10:40:39.808Z,17.09
2018-05-03T10:41:40.038Z,16.93
2018-05-03T10:42:40.273Z,16.74
2018-05-03T10:43:40.513Z,16.71
2018-05-03T10:44:40.734Z,16.58
2018-05-03T10:45:40.968Z,16.57
2018-05-03T10:46:41.201Z,16.61
2018-05-03T10:47:41.434Z,16.64
2018-05-03T10:48:41.699Z,16.69
2018-05-03T10:49:41.903Z,16.71
2018-05-03T10:50:42.135Z,16.78
2018-05-03T10:51:42.366Z,16.75
2018-05-03T10:52:42.597Z,16.69
2018-05-03T10:53:42.829Z,16.69
2018-05-03T10:54:43.055Z,16.72
2018-05-03T10:55:43.291Z,16.71
2018-05-03T10:56:43.522Z,16.56
2018-05-03T10:57:43.752Z,16.57
2018-05-03T10:58:43.993Z,16.71
2018-05-03T10:59:44.211Z,16.64
2018-05-03T11:00:44.451Z,16.61
2018-05-03T11:01:44.681Z,16.71
2018-05-03T11:02:44.911Z,16.74
2018-05-03T11:03:45.147Z,16.54
2018-05-03T11:04:45.385Z,16.74
2018-05-03T11:05:45.607Z,16.89
2018-05-03T11:06:45.841Z,16.78
2018-05-03T11:07:46.069Z,17.04
2018-05-03T11:08:46.303Z,17.23
2018-05-03T11:09:46.527Z,17.48
2018-05-03T11:10:46.772Z,17.45
2018-05-03T11:11:46.996Z,17.45
2018-05-03T11:12:47.227Z,17.46
2018-05-03T11:13:47.485Z,17.63
2018-05-03T11:14:47.683Z,17.70
2018-05-03T11:15:47.901Z,17.64
2018-05-03T11:16:48.194Z,17.71
2018-05-03T11:17:48.366Z,17.74
2018-05-03T11:18:48.595Z,17.71
2018-05-03T11:19:48.828Z,17.42
2018-05-03T11:20:49.055Z,17.48
2018-05-03T11:21:49.289Z,17.48
2018-05-03T11:22:49.518Z,17.60
2018-05-03T11:23:49.751Z,17.57
2018-05-03T11:24:49.981Z,17.79
2018-05-03T11:25:50.267Z,17.86
2018-05-03T11:26:50.435Z,17.98
2018-05-03T11:27:50.663Z,18.08
2018-05-03T11:28:50.895Z,18.26
2018-05-03T11:29:51.124Z,18.37
2018-05-03T11:30:51.360Z,18.56
2018-05-03T11:31:51.591Z,18.52
2018-05-03T11:32:51.822Z,18.53
2018-05-03T11:33:52.058Z,18.58
2018-05-03T11:34:52.285Z,18.70
2018-05-03T11:35:52.517Z,18.73
2018-05-03T11:36:52.755Z,18.73
2018-05-03T11:37:52.977Z,18.80
2018-05-03T11:38:53.211Z,18.89
2018-05-03T11:39:53.443Z,18.98
2018-05-03T11:40:53.676Z,19.18
2018-05-03T11:41:53.909Z,19.24
2018-05-03T11:42:54.142Z,19.33
2018-05-03T11:43:54.376Z,19.26
2018-05-03T11:44:54.601Z,19.07
2018-05-03T11:45:54.844Z,18.96
2018-05-03T11:46:55.077Z,19.12
2018-05-03T11:47:55.307Z,19.16
2018-05-03T11:48:55.540Z,19.16
2018-05-03T11:49:55.773Z,19.08
2018-05-03T11:50:56.002Z,18.95
2018-05-03T11:51:56.234Z,18.90
2018-05-03T11:52:56.465Z,18.95
2018-05-03T11:53:56.703Z,18.95
2018-05-03T11:54:56.941Z,19.00
2018-05-03T11:55:57.157Z,19.11
2018-05-03T11:56:57.381Z,19.22
2018-05-03T11:57:57.624Z,19.22
2018-05-03T11:58:57.847Z,18.99
2018-05-03T11:59:58.082Z,18.98
2018-05-03T12:00:58.316Z,18.89
2018-05-03T12:01:58.546Z,19.12
2018-05-03T12:02:58.779Z,19.31
2018-05-03T12:03:59.022Z,19.29
2018-05-03T12:04:59.245Z,19.47
2018-05-03T12:05:59.552Z,19.54
2018-05-03T12:06:59.695Z,19.64
2018-05-03T12:07:59.928Z,19.59
2018-05-03T12:09:00.169Z,19.77
2018-05-03T12:10:00.390Z,19.69
2018-05-03T12:11:00.620Z,19.34
2018-05-03T12:12:00.863Z,19.21
2018-05-03T12:13:01.098Z,18.96
2018-05-03T12:14:01.331Z,18.95
2018-05-03T12:15:01.557Z,19.15
2018-05-03T12:16:01.797Z,19.18
2018-05-03T12:17:02.021Z,19.24
2018-05-03T12:18:02.253Z,19.36
2018-05-03T12:19:02.489Z,19.41
2018-05-03T12:20:02.713Z,19.58
2018-05-03T12:21:02.950Z,19.76
2018-05-03T12:22:03.189Z,19.91
2018-05-03T12:23:03.414Z,20.18
2018-05-03T12:24:03.655Z,20.29
2018-05-03T12:25:03.885Z,20.31
2018-05-03T12:26:04.109Z,20.09
2018-05-03T12:27:04.344Z,19.99
2018-05-03T12:28:04.575Z,19.55
2018-05-03T12:29:04.810Z,19.31
2018-05-03T12:30:05.046Z,18.98
2018-05-03T12:31:05.276Z,18.78
2018-05-03T12:32:05.502Z,18.63
2018-05-03T12:33:05.733Z,18.70
2018-05-03T12:34:05.973Z,18.66
2018-05-03T12:35:06.210Z,18.58
2018-05-03T12:36:06.442Z,18.45
2018-05-03T12:37:06.677Z,18.45
2018-05-03T12:38:06.910Z,18.40
2018-05-03T12:39:07.138Z,18.40
2018-05-03T12:40:07.384Z,18.58
2018-05-03T12:41:07.598Z,18.68
2018-05-03T12:42:07.839Z,18.73
2018-05-03T12:43:08.067Z,18.78
2018-05-03T12:44:08.298Z,18.95
2018-05-03T12:45:08.544Z,19.04
2018-05-03T12:46:08.759Z,19.12
2018-05-03T12:47:08.994Z,19.22
2018-05-03T12:48:09.234Z,19.08
2018-05-03T12:49:09.465Z,19.18
2018-05-03T12:50:09.701Z,19.29
2018-05-03T12:51:09.992Z,19.48
2018-05-03T12:52:10.154Z,19.41
2018-05-03T12:53:10.386Z,19.40
2018-05-03T12:54:10.621Z,19.39
2018-05-03T12:55:10.855Z,19.22
2018-05-03T12:56:11.084Z,19.44
2018-05-03T12:57:11.313Z,19.54
2018-05-03T12:58:11.549Z,19.58
2018-05-03T12:59:11.802Z,19.69